createdAt,value
2019-06-07T00:04:43.465Z,17.07
2019-06-07T00:09:47.151Z,18.70
2019-06-07T00:14:50.895Z,15.47
2019-06-07T00:19:54.918Z,15.87
2019-06-07T00:24:58.870Z,17.37
2019-06-07T00:30:29.574Z,15.73
2019-06-07T00:35:09.116Z,19.80
2019-06-07T00:40:17.859Z,15.67
2019-06-07T00:45:21.861Z,14.93
2019-06-07T00:50:24.514Z,13.23
2019-06-07T00:55:28.389Z,14.73
2019-06-07T01:00:32.074Z,16.17
2019-06-07T01:05:35.774Z,15.77
2019-06-07T01:10:53.037Z,16.43
2019-06-07T01:15:45.212Z,15.60
2019-06-07T01:20:48.917Z,15.03
2019-06-07T01:25:52.597Z,19.07
2019-06-07T01:30:56.266Z,19.70
2019-06-07T01:35:59.971Z,16.40
2019-06-07T01:41:03.899Z,17.53
2019-06-07T01:46:07.624Z,20.47
2019-06-07T01:51:11.341Z,18.20
2019-06-07T01:56:15.030Z,19.60
2019-06-07T02:01:20.916Z,20.07
2019-06-07T02:06:29.200Z,19.57
2019-06-07T02:11:31.812Z,19.33
2019-06-07T02:16:35.555Z,17.00
2019-06-07T02:21:39.466Z,19.87
2019-06-07T02:26:43.626Z,21.67
2019-06-07T02:31:47.297Z,21.93
2019-06-07T02:36:51.284Z,20.80
2019-06-07T02:41:55.416Z,22.57
2019-06-07T02:46:59.389Z,19.83
2019-06-07T02:52:03.201Z,18.40
2019-06-07T02:57:07.144Z,22.20
2019-06-07T03:02:11.140Z,21.73
2019-06-07T03:07:16.310Z,21.73
2019-06-07T03:12:21.952Z,21.97
2019-06-07T03:17:40.205Z,24.10
2019-06-07T03:22:43.485Z,24.87
2019-06-07T03:27:50.201Z,25.07
2019-06-07T03:32:53.985Z,23.57
2019-06-07T03:37:57.641Z,25.90
2019-06-07T03:43:01.361Z,22.33
2019-06-07T03:48:05.033Z,24.47
2019-06-07T03:53:08.706Z,24.00
2019-06-07T04:03:32.876Z,25.93
2019-06-07T04:08:23.450Z,22.63
2019-06-07T04:13:30.535Z,21.90
2019-06-07T04:18:33.147Z,23.50
2019-06-07T04:23:45.128Z,20.50
2019-06-07T04:33:49.830Z,20.53
2019-06-07T04:38:54.296Z,20.97
2019-06-07T04:43:59.898Z,20.73
2019-06-07T04:49:04.651Z,18.03
2019-06-07T04:54:08.418Z,21.83
2019-06-07T04:59:12.395Z,19.27
2019-06-07T05:04:16.082Z,19.43
2019-06-07T05:09:19.821Z,20.03
2019-06-07T05:14:23.787Z,20.93
2019-06-07T05:19:27.737Z,20.60
2019-06-07T05:24:34.840Z,19.10
2019-06-07T05:29:40.631Z,21.30
2019-06-07T05:34:47.174Z,21.43
2019-06-07T05:39:48.682Z,19.70
2019-06-07T05:44:52.604Z,22.40
2019-06-07T05:49:56.539Z,18.13
2019-06-07T05:55:00.370Z,19.93
2019-06-07T06:00:04.887Z,21.90
2019-06-07T06:05:08.963Z,19.60
2019-06-07T06:10:12.944Z,22.63
2019-06-07T06:15:16.866Z,22.83
2019-06-07T06:20:20.964Z,21.00
2019-06-07T06:25:33.788Z,19.73
2019-06-07T06:30:30.164Z,21.60
2019-06-07T06:35:33.883Z,18.23
2019-06-07T06:40:38.911Z,21.73
2019-06-07T06:45:46.905Z,18.82
2019-06-07T06:50:52.208Z,20.10
2019-06-07T06:55:54.132Z,21.70
2019-06-07T07:01:06.352Z,17.40
2019-06-07T07:06:24.680Z,18.30
2019-06-07T07:11:11.321Z,18.25
2019-06-07T07:16:15.172Z,18.27
2019-06-07T07:21:19.210Z,16.50
2019-06-07T07:26:23.008Z,17.53
2019-06-07T07:31:26.758Z,18.45
2019-06-07T07:36:39.425Z,16.57
2019-06-07T07:41:35.930Z,16.48
2019-06-07T07:46:39.672Z,15.00
2019-06-07T07:51:44.029Z,15.83
2019-06-07T07:56:49.092Z,13.30
2019-06-07T08:01:56.011Z,14.03
2019-06-07T08:06:59.157Z,13.45
2019-06-07T08:12:03.039Z,13.78
2019-06-07T08:17:06.870Z,16.45
2019-06-07T08:22:10.607Z,13.98
2019-06-07T08:27:25.976Z,12.95
2019-06-07T08:32:19.947Z,10.48
2019-06-07T08:37:23.684Z,14.55
2019-06-07T08:42:37.028Z,12.45
2019-06-07T08:47:32.851Z,12.28
2019-06-07T08:52:36.799Z,12.68
2019-06-07T08:57:40.555Z,16.67
2019-06-07T09:02:44.306Z,12.65
2019-06-07T09:08:00.910Z,13.60
2019-06-07T09:12:59.565Z,14.23
2019-06-07T09:23:15.449Z,13.90
2019-06-07T09:28:19.176Z,13.15
2019-06-07T09:33:16.132Z,11.63
2019-06-07T09:38:25.829Z,10.65
2019-06-07T09:53:36.786Z,10.43
2019-06-07T09:58:52.161Z,11.12
2019-06-07T10:03:46.543Z,9.38
2019-06-07T10:13:55.729Z,9.90
2019-06-07T10:19:01.441Z,9.60
2019-06-07T10:24:05.553Z,10.70
2019-06-07T10:29:10.377Z,10.68
2019-06-07T10:34:14.126Z,8.90
2019-06-07T10:39:17.955Z,10.45
2019-06-07T10:44:21.625Z,8.58
2019-06-07T10:49:25.385Z,8.20
2019-06-07T10:54:30.794Z,10.13
2019-06-07T10:59:34.496Z,10.72
2019-06-07T11:04:38.240Z,7.40
2019-06-07T11:09:41.985Z,7.35
2019-06-07T11:14:45.735Z,7.33
2019-06-07T11:19:49.458Z,6.03
2019-06-07T11:24:53.291Z,5.50
2019-06-07T11:29:57.030Z,4.10
2019-06-07T11:35:00.720Z,6.10
2019-06-07T11:40:04.816Z,5.22
2019-06-07T11:45:10.501Z,3.92
2019-06-07T11:50:15.809Z,4.10
2019-06-07T11:55:19.667Z,3.55
2019-06-07T12:00:23.694Z,4.37
2019-06-07T12:05:27.468Z,5.95
2019-06-07T12:10:42.176Z,3.83
2019-06-07T12:15:36.634Z,3.27
2019-06-07T12:20:40.464Z,4.97
2019-06-07T12:25:44.179Z,3.00
2019-06-07T12:30:47.889Z,4.37
2019-06-07T12:35:51.597Z,4.00
2019-06-07T12:40:57.921Z,3.47
2019-06-07T12:46:01.195Z,2.62
2019-06-07T12:51:05.154Z,2.17
2019-06-07T12:56:08.872Z,2.40
2019-06-07T13:01:13.785Z,2.52
2019-06-07T13:06:17.933Z,2.45
2019-06-07T13:11:27.720Z,1.90
2019-06-07T13:16:28.452Z,2.27
2019-06-07T13:21:32.355Z,2.05
2019-06-07T13:26:36.316Z,2.00
2019-06-07T13:31:40.050Z,2.12
2019-06-07T13:36:44.066Z,1.70
2019-06-07T13:41:47.863Z,2.47
2019-06-07T13:46:51.650Z,3.15
2019-06-07T13:51:55.379Z,2.05
2019-06-07T13:57:02.574Z,2.70
2019-06-07T14:02:05.113Z,2.60
2019-06-07T14:07:08.884Z,3.05
2019-06-07T14:12:12.634Z,3.15
2019-06-07T14:17:16.318Z,2.60
2019-06-07T14:22:20.574Z,3.27
2019-06-07T14:27:25.456Z,2.70
2019-06-07T14:32:30.850Z,2.62
2019-06-07T14:37:34.839Z,2.92
2019-06-07T14:42:38.859Z,3.33
2019-06-07T14:47:42.912Z,3.50
2019-06-07T14:52:46.824Z,3.08
2019-06-07T14:57:50.583Z,4.62
2019-06-07T15:02:54.368Z,3.20
2019-06-07T15:07:58.161Z,3.45
2019-06-07T15:13:01.936Z,3.30
2019-06-07T15:18:05.612Z,4.00
2019-06-07T15:23:09.313Z,4.10
2019-06-07T15:28:13.075Z,6.10
2019-06-07T15:33:16.809Z,4.12
2019-06-07T15:38:20.488Z,4.97
2019-06-07T15:43:24.170Z,3.92
2019-06-07T15:48:29.720Z,3.80
2019-06-07T15:53:39.085Z,4.10
2019-06-07T15:58:39.419Z,4.67
2019-06-07T16:03:43.462Z,4.25
2019-06-07T16:08:47.280Z,4.90
2019-06-07T16:13:53.789Z,4.33
2019-06-07T16:18:57.661Z,5.05
2019-06-07T16:24:01.599Z,5.67
2019-06-07T16:29:05.322Z,4.65
2019-06-07T16:34:09.052Z,5.75
2019-06-07T16:39:12.764Z,4.47
2019-06-07T16:44:17.626Z,5.50
2019-06-07T16:49:21.293Z,5.75
2019-06-07T16:54:25.015Z,6.15
2019-06-07T16:59:28.718Z,5.05
2019-06-07T17:04:32.664Z,4.70
2019-06-07T17:09:36.341Z,5.58
2019-06-07T17:14:40.536Z,5.78
2019-06-07T17:19:45.004Z,6.58
2019-06-07T17:24:49.868Z,7.05
2019-06-07T17:29:53.771Z,6.40
2019-06-07T17:34:57.482Z,5.62
2019-06-07T17:40:01.235Z,6.12
2019-06-07T17:45:06.041Z,7.75
2019-06-07T17:50:10.804Z,6.70
2019-06-07T17:55:16.615Z,5.78
2019-06-07T18:00:29.178Z,6.95
2019-06-07T18:05:27.294Z,6.30
2019-06-07T18:10:35.953Z,5.72
2019-06-07T18:15:41.521Z,6.37
2019-06-07T18:20:45.379Z,6.30
2019-06-07T18:25:50.463Z,7.15
2019-06-07T18:30:54.883Z,6.25
2019-06-07T18:35:59.470Z,6.50
2019-06-07T18:41:03.207Z,6.30
2019-06-07T18:46:07.060Z,6.90
2019-06-07T18:51:10.804Z,7.20
2019-06-07T18:56:14.527Z,6.20
2019-06-07T19:01:18.233Z,6.92
2019-06-07T19:06:21.917Z,6.85
2019-06-07T19:11:25.569Z,5.50
2019-06-07T19:16:29.544Z,7.33
2019-06-07T19:21:33.234Z,7.22
2019-06-07T19:26:37.205Z,6.30
2019-06-07T19:31:42.972Z,7.50
2019-06-07T19:36:49.079Z,7.30
2019-06-07T19:41:52.082Z,7.42
2019-06-07T19:46:56.540Z,8.48
2019-06-07T19:52:01.107Z,7.42
2019-06-07T19:57:05.057Z,9.40
2019-06-07T20:02:09.255Z,7.83
2019-06-07T20:07:12.974Z,7.70
2019-06-07T20:12:16.925Z,8.25
2019-06-07T20:17:20.692Z,8.03
2019-06-07T20:22:27.797Z,8.80
2019-06-07T20:27:31.694Z,9.28
2019-06-07T20:32:35.738Z,8.05
2019-06-07T20:37:39.532Z,8.58
2019-06-07T20:42:43.227Z,7.67
2019-06-07T20:47:46.966Z,8.45
2019-06-07T20:52:50.708Z,9.20
2019-06-07T20:57:54.371Z,12.10
2019-06-07T21:02:59.323Z,8.00
2019-06-07T21:08:04.146Z,8.80
2019-06-07T21:13:08.542Z,8.93
2019-06-07T21:18:19.362Z,10.18
2019-06-07T21:23:17.742Z,6.67
2019-06-07T21:28:21.465Z,7.35
2019-06-07T21:33:25.185Z,6.62
2019-06-07T21:38:28.923Z,9.10
2019-06-07T21:43:32.979Z,9.50
2019-06-07T21:48:36.643Z,6.87
2019-06-07T21:53:40.327Z,6.78
2019-06-07T21:58:44.074Z,5.85
2019-06-07T22:03:48.091Z,5.47
2019-06-07T22:08:51.776Z,7.25
2019-06-07T22:13:55.474Z,6.45
2019-06-07T22:18:59.410Z,5.00
2019-06-07T22:24:03.137Z,7.97
2019-06-07T22:29:08.161Z,7.72
2019-06-07T22:34:12.774Z,8.30
2019-06-07T22:39:17.849Z,10.15
2019-06-07T22:44:22.142Z,9.03
2019-06-07T22:49:25.989Z,8.90
2019-06-07T22:54:29.816Z,7.15
2019-06-07T22:59:33.547Z,8.08
2019-06-07T23:04:37.700Z,9.98
2019-06-07T23:09:41.389Z,7.78
2019-06-07T23:14:45.274Z,7.12
2019-06-07T23:19:48.940Z,7.05
2019-06-07T23:24:52.630Z,6.55
2019-06-07T23:29:56.555Z,6.60
2019-06-07T23:35:00.230Z,7.50
2019-06-07T23:40:04.245Z,10.98
2019-06-07T23:45:09.068Z,10.18
2019-06-07T23:50:13.724Z,10.68
2019-06-07T23:55:17.976Z,11.22
